sensor_id;sensor_type;location;lat;lon;timestamp;P1;durP1;ratioP1;P2;durP2;ratioP2
17141;SDS011;32805;53.556;9.944;2022-07-23T00:01:08;2.53;;;1.13;;
17141;SDS011;32805;53.556;9.944;2022-07-23T00:03:36;3.28;;;1.00;;
17141;SDS011;32805;53.556;9.944;2022-07-23T00:06:05;3.08;;;1.20;;
17141;SDS011;32805;53.556;9.944;2022-07-23T00:08:35;2.22;;;1.23;;
17141;SDS011;32805;53.556;9.944;2022-07-23T00:11:03;1.23;;;0.95;;
17141;SDS011;32805;53.556;9.944;2022-07-23T00:13:31;3.83;;;0.95;;
17141;SDS011;32805;53.556;9.944;2022-07-23T00:15:59;2.35;;;1.40;;
17141;SDS011;32805;53.556;9.944;2022-07-23T00:18:27;3.95;;;1.20;;
17141;SDS011;32805;53.556;9.944;2022-07-23T00:20:55;2.63;;;1.35;;
17141;SDS011;32805;53.556;9.944;2022-07-23T00:23:24;4.05;;;1.50;;
17141;SDS011;32805;53.556;9.944;2022-07-23T00:25:53;2.58;;;1.33;;
17141;SDS011;32805;53.556;9.944;2022-07-23T00:28:21;3.42;;;1.50;;
17141;SDS011;32805;53.556;9.944;2022-07-23T00:30:49;5.45;;;1.50;;
17141;SDS011;32805;53.556;9.944;2022-07-23T00:33:17;2.63;;;1.30;;
17141;SDS011;32805;53.556;9.944;2022-07-23T00:35:45;6.63;;;1.52;;
17141;SDS011;32805;53.556;9.944;2022-07-23T00:38:12;1.92;;;1.42;;
17141;SDS011;32805;53.556;9.944;2022-07-23T00:40:42;3.72;;;1.42;;
17141;SDS011;32805;53.556;9.944;2022-07-23T00:43:09;2.80;;;1.40;;
17141;SDS011;32805;53.556;9.944;2022-07-23T00:45:37;4.45;;;1.27;;
17141;SDS011;32805;53.556;9.944;2022-07-23T00:48:05;2.15;;;1.25;;
17141;SDS011;32805;53.556;9.944;2022-07-23T00:50:34;3.08;;;1.55;;
17141;SDS011;32805;53.556;9.944;2022-07-23T00:53:02;2.97;;;1.30;;
17141;SDS011;32805;53.556;9.944;2022-07-23T00:55:31;2.40;;;1.20;;
17141;SDS011;32805;53.556;9.944;2022-07-23T00:58:00;4.50;;;1.48;;
17141;SDS011;32805;53.556;9.944;2022-07-23T01:00:29;3.40;;;1.13;;
17141;SDS011;32805;53.556;9.944;2022-07-23T01:02:57;3.28;;;1.10;;
17141;SDS011;32805;53.556;9.944;2022-07-23T01:05:25;2.17;;;1.10;;
17141;SDS011;32805;53.556;9.944;2022-07-23T01:07:53;3.60;;;1.65;;
17141;SDS011;32805;53.556;9.944;2022-07-23T01:10:22;1.25;;;1.00;;
17141;SDS011;32805;53.556;9.944;2022-07-23T01:13:02;2.00;;;1.35;;
17141;SDS011;32805;53.556;9.944;2022-07-23T01:15:32;2.95;;;1.10;;
17141;SDS011;32805;53.556;9.944;2022-07-23T01:18:00;3.13;;;1.10;;
17141;SDS011;32805;53.556;9.944;2022-07-23T01:20:28;1.42;;;1.15;;
17141;SDS011;32805;53.556;9.944;2022-07-23T01:22:58;1.20;;;1.05;;
17141;SDS011;32805;53.556;9.944;2022-07-23T01:25:26;1.98;;;1.00;;
17141;SDS011;32805;53.556;9.944;2022-07-23T01:28:00;2.35;;;1.10;;
17141;SDS011;32805;53.556;9.944;2022-07-23T01:30:28;1.02;;;0.75;;
17141;SDS011;32805;53.556;9.944;2022-07-23T01:32:57;2.83;;;1.10;;
17141;SDS011;32805;53.556;9.944;2022-07-23T01:35:25;2.30;;;0.95;;
17141;SDS011;32805;53.556;9.944;2022-07-23T01:37:58;2.05;;;1.10;;
17141;SDS011;32805;53.556;9.944;2022-07-23T01:40:26;5.28;;;1.00;;
17141;SDS011;32805;53.556;9.944;2022-07-23T01:42:55;5.07;;;0.95;;
17141;SDS011;32805;53.556;9.944;2022-07-23T01:45:25;2.85;;;1.10;;
17141;SDS011;32805;53.556;9.944;2022-07-23T01:47:52;0.90;;;0.90;;
17141;SDS011;32805;53.556;9.944;2022-07-23T01:50:20;1.63;;;1.13;;
17141;SDS011;32805;53.556;9.944;2022-07-23T01:53:13;2.83;;;1.00;;
17141;SDS011;32805;53.556;9.944;2022-07-23T01:55:41;1.73;;;0.73;;
17141;SDS011;32805;53.556;9.944;2022-07-23T01:58:09;2.45;;;1.10;;
17141;SDS011;32805;53.556;9.944;2022-07-23T02:00:37;4.00;;;1.13;;
17141;SDS011;32805;53.556;9.944;2022-07-23T02:03:05;1.23;;;1.00;;
17141;SDS011;32805;53.556;9.944;2022-07-23T02:05:36;1.77;;;1.05;;
17141;SDS011;32805;53.556;9.944;2022-07-23T02:08:04;2.80;;;1.20;;
17141;SDS011;32805;53.556;9.944;2022-07-23T02:10:36;0.95;;;0.85;;
17141;SDS011;32805;53.556;9.944;2022-07-23T02:13:04;1.70;;;1.08;;
17141;SDS011;32805;53.556;9.944;2022-07-23T02:15:32;3.53;;;1.10;;
17141;SDS011;32805;53.556;9.944;2022-07-23T02:18:00;3.22;;;1.10;;
17141;SDS011;32805;53.556;9.944;2022-07-23T02:20:30;2.72;;;1.23;;
17141;SDS011;32805;53.556;9.944;2022-07-23T02:22:58;3.15;;;1.38;;
17141;SDS011;32805;53.556;9.944;2022-07-23T02:25:26;2.80;;;1.25;;
17141;SDS011;32805;53.556;9.944;2022-07-23T02:28:00;2.00;;;1.13;;
17141;SDS011;32805;53.556;9.944;2022-07-23T02:30:27;4.80;;;1.48;;
17141;SDS011;32805;53.556;9.944;2022-07-23T02:32:55;2.15;;;1.52;;
17141;SDS011;32805;53.556;9.944;2022-07-23T02:35:24;1.35;;;0.95;;
17141;SDS011;32805;53.556;9.944;2022-07-23T02:37:52;3.45;;;1.33;;
17141;SDS011;32805;53.556;9.944;2022-07-23T02:40:20;4.10;;;1.30;;
17141;SDS011;32805;53.556;9.944;2022-07-23T02:42:48;1.85;;;1.23;;
17141;SDS011;32805;53.556;9.944;2022-07-23T02:45:17;4.47;;;1.30;;
17141;SDS011;32805;53.556;9.944;2022-07-23T02:47:45;4.50;;;1.40;;
17141;SDS011;32805;53.556;9.944;2022-07-23T02:50:13;3.78;;;1.42;;
17141;SDS011;32805;53.556;9.944;2022-07-23T02:52:41;1.83;;;1.10;;
17141;SDS011;32805;53.556;9.944;2022-07-23T02:55:09;3.45;;;1.25;;
17141;SDS011;32805;53.556;9.944;2022-07-23T02:57:37;2.42;;;1.15;;
17141;SDS011;32805;53.556;9.944;2022-07-23T03:00:06;4.38;;;1.98;;
17141;SDS011;32805;53.556;9.944;2022-07-23T03:02:36;2.70;;;1.20;;
17141;SDS011;32805;53.556;9.944;2022-07-23T03:05:04;5.03;;;1.70;;
17141;SDS011;32805;53.556;9.944;2022-07-23T03:07:33;3.97;;;1.90;;
17141;SDS011;32805;53.556;9.944;2022-07-23T03:10:03;4.70;;;1.60;;
17141;SDS011;32805;53.556;9.944;2022-07-23T03:12:31;4.68;;;1.90;;
17141;SDS011;32805;53.556;9.944;2022-07-23T03:14:59;6.97;;;1.80;;
17141;SDS011;32805;53.556;9.944;2022-07-23T03:17:27;5.32;;;1.40;;
17141;SDS011;32805;53.556;9.944;2022-07-23T03:19:56;3.22;;;1.85;;
17141;SDS011;32805;53.556;9.944;2022-07-23T03:22:24;5.85;;;2.00;;
17141;SDS011;32805;53.556;9.944;2022-07-23T03:24:52;4.35;;;1.77;;
17141;SDS011;32805;53.556;9.944;2022-07-23T03:27:29;4.00;;;2.00;;
17141;SDS011;32805;53.556;9.944;2022-07-23T03:29:58;2.65;;;2.00;;
17141;SDS011;32805;53.556;9.944;2022-07-23T03:32:27;7.85;;;1.60;;
17141;SDS011;32805;53.556;9.944;2022-07-23T03:34:56;2.15;;;1.95;;
17141;SDS011;32805;53.556;9.944;2022-07-23T03:37:24;3.28;;;1.80;;
17141;SDS011;32805;53.556;9.944;2022-07-23T03:39:55;2.47;;;1.55;;
17141;SDS011;32805;53.556;9.944;2022-07-23T03:42:23;7.00;;;2.35;;
17141;SDS011;32805;53.556;9.944;2022-07-23T03:44:50;6.03;;;1.65;;
17141;SDS011;32805;53.556;9.944;2022-07-23T03:47:18;3.45;;;1.60;;
17141;SDS011;32805;53.556;9.944;2022-07-23T03:49:49;2.40;;;1.50;;
17141;SDS011;32805;53.556;9.944;2022-07-23T03:52:18;1.98;;;1.60;;
17141;SDS011;32805;53.556;9.944;2022-07-23T03:54:46;3.92;;;1.80;;
17141;SDS011;32805;53.556;9.944;2022-07-23T03:57:14;3.00;;;1.65;;
17141;SDS011;32805;53.556;9.944;2022-07-23T03:59:42;4.20;;;1.80;;
17141;SDS011;32805;53.556;9.944;2022-07-23T04:02:11;2.03;;;1.60;;
17141;SDS011;32805;53.556;9.944;2022-07-23T04:04:39;5.18;;;2.38;;
17141;SDS011;32805;53.556;9.944;2022-07-23T04:07:07;5.60;;;2.20;;
17141;SDS011;32805;53.556;9.944;2022-07-23T04:09:38;2.90;;;1.80;;
17141;SDS011;32805;53.556;9.944;2022-07-23T04:12:11;3.05;;;2.40;;
17141;SDS011;32805;53.556;9.944;2022-07-23T04:14:40;4.80;;;2.45;;
17141;SDS011;32805;53.556;9.944;2022-07-23T04:17:08;4.90;;;2.22;;
17141;SDS011;32805;53.556;9.944;2022-07-23T04:19:36;4.25;;;2.20;;
17141;SDS011;32805;53.556;9.944;2022-07-23T04:22:07;2.95;;;2.13;;
17141;SDS011;32805;53.556;9.944;2022-07-23T04:24:37;4.35;;;2.25;;
17141;SDS011;32805;53.556;9.944;2022-07-23T04:27:05;6.03;;;2.28;;
17141;SDS011;32805;53.556;9.944;2022-07-23T04:29:33;4.15;;;2.42;;
17141;SDS011;32805;53.556;9.944;2022-07-23T04:32:01;5.10;;;2.70;;
17141;SDS011;32805;53.556;9.944;2022-07-23T04:34:29;3.13;;;2.58;;
17141;SDS011;32805;53.556;9.944;2022-07-23T04:36:57;7.50;;;2.67;;
17141;SDS011;32805;53.556;9.944;2022-07-23T04:39:27;6.13;;;2.85;;
17141;SDS011;32805;53.556;9.944;2022-07-23T04:41:56;5.93;;;2.58;;
17141;SDS011;32805;53.556;9.944;2022-07-23T04:44:24;4.97;;;2.47;;
17141;SDS011;32805;53.556;9.944;2022-07-23T04:46:52;3.17;;;2.53;;
17141;SDS011;32805;53.556;9.944;2022-07-23T04:49:22;2.85;;;2.10;;
17141;SDS011;32805;53.556;9.944;2022-07-23T04:51:50;4.07;;;2.58;;
17141;SDS011;32805;53.556;9.944;2022-07-23T04:54:18;4.55;;;2.30;;
17141;SDS011;32805;53.556;9.944;2022-07-23T04:56:46;2.88;;;2.13;;
17141;SDS011;32805;53.556;9.944;2022-07-23T04:59:15;3.25;;;2.40;;
17141;SDS011;32805;53.556;9.944;2022-07-23T05:01:43;2.72;;;1.90;;
17141;SDS011;32805;53.556;9.944;2022-07-23T05:04:11;4.82;;;2.75;;
17141;SDS011;32805;53.556;9.944;2022-07-23T05:06:40;3.83;;;2.03;;
17141;SDS011;32805;53.556;9.944;2022-07-23T05:09:08;1.65;;;1.45;;
17141;SDS011;32805;53.556;9.944;2022-07-23T05:11:36;1.48;;;1.38;;
17141;SDS011;32805;53.556;9.944;2022-07-23T05:14:04;1.95;;;1.10;;
17141;SDS011;32805;53.556;9.944;2022-07-23T05:16:34;2.85;;;1.17;;
17141;SDS011;32805;53.556;9.944;2022-07-23T05:19:08;2.30;;;1.25;;
17141;SDS011;32805;53.556;9.944;2022-07-23T05:21:36;3.70;;;1.30;;
17141;SDS011;32805;53.556;9.944;2022-07-23T05:24:05;2.90;;;1.10;;
17141;SDS011;32805;53.556;9.944;2022-07-23T05:26:33;2.25;;;1.20;;
17141;SDS011;32805;53.556;9.944;2022-07-23T05:29:02;3.55;;;1.30;;
17141;SDS011;32805;53.556;9.944;2022-07-23T05:31:30;2.38;;;1.45;;
17141;SDS011;32805;53.556;9.944;2022-07-23T05:34:00;1.77;;;1.23;;
17141;SDS011;32805;53.556;9.944;2022-07-23T05:36:28;2.85;;;0.98;;
17141;SDS011;32805;53.556;9.944;2022-07-23T05:38:56;1.15;;;1.02;;
17141;SDS011;32805;53.556;9.944;2022-07-23T05:41:27;3.13;;;0.80;;
17141;SDS011;32805;53.556;9.944;2022-07-23T05:43:55;1.10;;;1.00;;
17141;SDS011;32805;53.556;9.944;2022-07-23T05:46:24;1.77;;;1.20;;
17141;SDS011;32805;53.556;9.944;2022-07-23T05:48:56;1.35;;;1.05;;
17141;SDS011;32805;53.556;9.944;2022-07-23T05:51:45;2.40;;;1.38;;
17141;SDS011;32805;53.556;9.944;2022-07-23T05:54:16;1.65;;;1.55;;
17141;SDS011;32805;53.556;9.944;2022-07-23T05:56:45;2.83;;;1.65;;
17141;SDS011;32805;53.556;9.944;2022-07-23T05:59:13;3.13;;;2.50;;
17141;SDS011;32805;53.556;9.944;2022-07-23T06:01:41;3.58;;;1.52;;
17141;SDS011;32805;53.556;9.944;2022-07-23T06:04:10;2.78;;;1.40;;
17141;SDS011;32805;53.556;9.944;2022-07-23T06:06:46;3.63;;;1.42;;
17141;SDS011;32805;53.556;9.944;2022-07-23T06:09:14;3.28;;;1.73;;
17141;SDS011;32805;53.556;9.944;2022-07-23T06:11:42;3.17;;;1.70;;
17141;SDS011;32805;53.556;9.944;2022-07-23T06:14:10;1.83;;;1.70;;
17141;SDS011;32805;53.556;9.944;2022-07-23T06:16:48;4.13;;;1.73;;
17141;SDS011;32805;53.556;9.944;2022-07-23T06:19:15;1.90;;;1.58;;
17141;SDS011;32805;53.556;9.944;2022-07-23T06:21:44;4.50;;;1.85;;
17141;SDS011;32805;53.556;9.944;2022-07-23T06:24:16;3.22;;;1.90;;
17141;SDS011;32805;53.556;9.944;2022-07-23T06:26:45;2.67;;;1.60;;
17141;SDS011;32805;53.556;9.944;2022-07-23T06:29:13;2.60;;;1.77;;
17141;SDS011;32805;53.556;9.944;2022-07-23T06:31:41;1.98;;;1.52;;
17141;SDS011;32805;53.556;9.944;2022-07-23T06:34:09;2.80;;;1.58;;
17141;SDS011;32805;53.556;9.944;2022-07-23T06:36:37;3.83;;;1.90;;
17141;SDS011;32805;53.556;9.944;2022-07-23T06:39:05;3.85;;;1.98;;
17141;SDS011;32805;53.556;9.944;2022-07-23T06:41:36;4.43;;;2.20;;
17141;SDS011;32805;53.556;9.944;2022-07-23T06:44:04;5.82;;;2.35;;
17141;SDS011;32805;53.556;9.944;2022-07-23T06:46:34;2.45;;;2.05;;
17141;SDS011;32805;53.556;9.944;2022-07-23T06:49:02;3.15;;;2.20;;
17141;SDS011;32805;53.556;9.944;2022-07-23T06:51:32;5.13;;;2.35;;
17141;SDS011;32805;53.556;9.944;2022-07-23T06:54:00;3.55;;;1.95;;
17141;SDS011;32805;53.556;9.944;2022-07-23T06:56:28;3.00;;;1.95;;
17141;SDS011;32805;53.556;9.944;2022-07-23T06:58:57;4.55;;;1.80;;
17141;SDS011;32805;53.556;9.944;2022-07-23T07:01:26;2.72;;;1.83;;
17141;SDS011;32805;53.556;9.944;2022-07-23T07:03:53;3.00;;;1.52;;
17141;SDS011;32805;53.556;9.944;2022-07-23T07:06:21;4.53;;;2.88;;
17141;SDS011;32805;53.556;9.944;2022-07-23T07:08:50;3.88;;;2.10;;
17141;SDS011;32805;53.556;9.944;2022-07-23T07:11:18;2.20;;;1.50;;
17141;SDS011;32805;53.556;9.944;2022-07-23T07:13:46;4.05;;;1.00;;
17141;SDS011;32805;53.556;9.944;2022-07-23T07:16:15;1.73;;;0.88;;
17141;SDS011;32805;53.556;9.944;2022-07-23T07:18:45;1.20;;;0.90;;
17141;SDS011;32805;53.556;9.944;2022-07-23T07:21:13;1.38;;;1.00;;
17141;SDS011;32805;53.556;9.944;2022-07-23T07:23:41;1.20;;;0.90;;
17141;SDS011;32805;53.556;9.944;2022-07-23T07:26:08;1.00;;;0.80;;
17141;SDS011;32805;53.556;9.944;2022-07-23T07:28:36;2.55;;;1.35;;
17141;SDS011;32805;53.556;9.944;2022-07-23T07:31:05;1.83;;;1.08;;
17141;SDS011;32805;53.556;9.944;2022-07-23T07:33:35;1.38;;;0.88;;
17141;SDS011;32805;53.556;9.944;2022-07-23T07:36:03;3.05;;;0.80;;
17141;SDS011;32805;53.556;9.944;2022-07-23T07:38:35;2.65;;;0.77;;
17141;SDS011;32805;53.556;9.944;2022-07-23T07:41:03;2.10;;;0.65;;
17141;SDS011;32805;53.556;9.944;2022-07-23T07:43:31;2.88;;;0.80;;
17141;SDS011;32805;53.556;9.944;2022-07-23T07:45:59;0.77;;;0.70;;
17141;SDS011;32805;53.556;9.944;2022-07-23T07:48:27;1.02;;;0.60;;
17141;SDS011;32805;53.556;9.944;2022-07-23T07:50:56;1.55;;;0.60;;
17141;SDS011;32805;53.556;9.944;2022-07-23T07:53:25;2.60;;;0.70;;
17141;SDS011;32805;53.556;9.944;2022-07-23T07:55:52;1.13;;;1.00;;
17141;SDS011;32805;53.556;9.944;2022-07-23T07:58:20;1.25;;;1.08;;
17141;SDS011;32805;53.556;9.944;2022-07-23T08:00:48;0.88;;;0.65;;
17141;SDS011;32805;53.556;9.944;2022-07-23T08:03:17;1.38;;;0.63;;
17141;SDS011;32805;53.556;9.944;2022-07-23T08:05:45;2.13;;;1.10;;
17141;SDS011;32805;53.556;9.944;2022-07-23T08:08:14;1.33;;;0.88;;
17141;SDS011;32805;53.556;9.944;2022-07-23T08:10:42;1.38;;;0.70;;
17141;SDS011;32805;53.556;9.944;2022-07-23T08:13:12;1.00;;;0.77;;
17141;SDS011;32805;53.556;9.944;2022-07-23T08:15:42;1.25;;;0.98;;
17141;SDS011;32805;53.556;9.944;2022-07-23T08:18:12;3.42;;;0.77;;
17141;SDS011;32805;53.556;9.944;2022-07-23T08:20:40;2.22;;;0.60;;
17141;SDS011;32805;53.556;9.944;2022-07-23T08:23:08;3.60;;;1.42;;
17141;SDS011;32805;53.556;9.944;2022-07-23T08:25:38;0.90;;;0.88;;
17141;SDS011;32805;53.556;9.944;2022-07-23T08:28:08;1.05;;;0.80;;
17141;SDS011;32805;53.556;9.944;2022-07-23T08:30:39;0.90;;;0.63;;
17141;SDS011;32805;53.556;9.944;2022-07-23T08:33:09;0.80;;;0.70;;
17141;SDS011;32805;53.556;9.944;2022-07-23T08:36:00;0.70;;;0.63;;
17141;SDS011;32805;53.556;9.944;2022-07-23T08:38:30;1.55;;;0.73;;
17141;SDS011;32805;53.556;9.944;2022-07-23T08:40:59;1.10;;;0.68;;
17141;SDS011;32805;53.556;9.944;2022-07-23T08:43:29;2.35;;;1.02;;
17141;SDS011;32805;53.556;9.944;2022-07-23T08:45:59;0.70;;;0.50;;
17141;SDS011;32805;53.556;9.944;2022-07-23T08:48:29;1.13;;;0.60;;
17141;SDS011;32805;53.556;9.944;2022-07-23T08:50:59;0.88;;;0.50;;
17141;SDS011;32805;53.556;9.944;2022-07-23T08:53:29;2.85;;;0.60;;
17141;SDS011;32805;53.556;9.944;2022-07-23T08:56:02;0.77;;;0.50;;
17141;SDS011;32805;53.556;9.944;2022-07-23T08:58:31;1.02;;;0.70;;
17141;SDS011;32805;53.556;9.944;2022-07-23T09:00:59;1.35;;;0.88;;
17141;SDS011;32805;53.556;9.944;2022-07-23T09:03:28;0.82;;;0.68;;
17141;SDS011;32805;53.556;9.944;2022-07-23T09:05:57;1.50;;;0.93;;
17141;SDS011;32805;53.556;9.944;2022-07-23T09:08:33;1.90;;;0.65;;
17141;SDS011;32805;53.556;9.944;2022-07-23T09:11:04;1.08;;;0.80;;
17141;SDS011;32805;53.556;9.944;2022-07-23T09:13:35;1.63;;;0.63;;
17141;SDS011;32805;53.556;9.944;2022-07-23T09:16:06;1.60;;;0.88;;
17141;SDS011;32805;53.556;9.944;2022-07-23T09:18:38;1.45;;;0.60;;
17141;SDS011;32805;53.556;9.944;2022-07-23T09:21:14;3.33;;;0.70;;
17141;SDS011;32805;53.556;9.944;2022-07-23T09:23:47;1.25;;;0.65;;
17141;SDS011;32805;53.556;9.944;2022-07-23T09:26:19;4.85;;;1.17;;
17141;SDS011;32805;53.556;9.944;2022-07-23T09:28:53;0.88;;;0.70;;
17141;SDS011;32805;53.556;9.944;2022-07-23T09:31:24;0.88;;;0.77;;
17141;SDS011;32805;53.556;9.944;2022-07-23T09:36:49;2.58;;;1.13;;
17141;SDS011;32805;53.556;9.944;2022-07-23T09:39:22;1.33;;;0.85;;
17141;SDS011;32805;53.556;9.944;2022-07-23T09:41:55;1.10;;;0.80;;
17141;SDS011;32805;53.556;9.944;2022-07-23T09:44:24;0.77;;;0.60;;
17141;SDS011;32805;53.556;9.944;2022-07-23T09:46:57;1.85;;;0.70;;
17141;SDS011;32805;53.556;9.944;2022-07-23T09:49:26;2.33;;;0.90;;
17141;SDS011;32805;53.556;9.944;2022-07-23T09:51:56;0.65;;;0.50;;
17141;SDS011;32805;53.556;9.944;2022-07-23T09:54:28;2.28;;;0.70;;
17141;SDS011;32805;53.556;9.944;2022-07-23T09:57:00;0.57;;;0.57;;
17141;SDS011;32805;53.556;9.944;2022-07-23T09:59:32;1.50;;;0.60;;
17141;SDS011;32805;53.556;9.944;2022-07-23T10:02:01;3.35;;;0.60;;
17141;SDS011;32805;53.556;9.944;2022-07-23T10:04:37;0.60;;;0.50;;
17141;SDS011;32805;53.556;9.944;2022-07-23T10:07:17;0.85;;;0.60;;
17141;SDS011;32805;53.556;9.944;2022-07-23T10:10:05;1.23;;;0.50;;
17141;SDS011;32805;53.556;9.944;2022-07-23T10:12:54;0.40;;;0.40;;
17141;SDS011;32805;53.556;9.944;2022-07-23T10:15:48;0.68;;;0.65;;
17141;SDS011;32805;53.556;9.944;2022-07-23T10:18:16;0.82;;;0.40;;
17141;SDS011;32805;53.556;9.944;2022-07-23T10:20:44;1.30;;;0.40;;
17141;SDS011;32805;53.556;9.944;2022-07-23T10:23:15;2.38;;;0.45;;
17141;SDS011;32805;53.556;9.944;2022-07-23T10:25:52;2.38;;;0.90;;
17141;SDS011;32805;53.556;9.944;2022-07-23T10:28:32;1.35;;;0.43;;
17141;SDS011;32805;53.556;9.944;2022-07-23T10:31:12;1.38;;;0.60;;
17141;SDS011;32805;53.556;9.944;2022-07-23T10:34:12;1.50;;;0.50;;
17141;SDS011;32805;53.556;9.944;2022-07-23T10:36:47;2.03;;;0.60;;
17141;SDS011;32805;53.556;9.944;2022-07-23T10:39:19;0.93;;;0.40;;
17141;SDS011;32805;53.556;9.944;2022-07-23T10:41:51;1.17;;;0.70;;
17141;SDS011;32805;53.556;9.944;2022-07-23T10:44:21;1.95;;;0.40;;
17141;SDS011;32805;53.556;9.944;2022-07-23T10:46:53;1.00;;;0.43;;
17141;SDS011;32805;53.556;9.944;2022-07-23T10:49:49;3.60;;;0.50;;
17141;SDS011;32805;53.556;9.944;2022-07-23T10:52:21;0.88;;;0.55;;
17141;SDS011;32805;53.556;9.944;2022-07-23T10:54:52;0.80;;;0.70;;
17141;SDS011;32805;53.556;9.944;2022-07-23T10:57:23;1.90;;;0.60;;
17141;SDS011;32805;53.556;9.944;2022-07-23T11:02:49;2.13;;;0.80;;
17141;SDS011;32805;53.556;9.944;2022-07-23T11:05:20;0.40;;;0.40;;
17141;SDS011;32805;53.556;9.944;2022-07-23T11:10:47;1.10;;;0.57;;
17141;SDS011;32805;53.556;9.944;2022-07-23T11:13:30;1.02;;;0.73;;
17141;SDS011;32805;53.556;9.944;2022-07-23T11:16:14;0.77;;;0.47;;
17141;SDS011;32805;53.556;9.944;2022-07-23T11:21:45;5.38;;;0.80;;
17141;SDS011;32805;53.556;9.944;2022-07-23T11:24:20;0.98;;;0.40;;
17141;SDS011;32805;53.556;9.944;2022-07-23T11:26:56;1.52;;;0.50;;
17141;SDS011;32805;53.556;9.944;2022-07-23T11:29:38;0.65;;;0.50;;
17141;SDS011;32805;53.556;9.944;2022-07-23T11:32:31;1.70;;;0.60;;
17141;SDS011;32805;53.556;9.944;2022-07-23T11:35:02;0.70;;;0.52;;
17141;SDS011;32805;53.556;9.944;2022-07-23T11:37:45;0.40;;;0.40;;
17141;SDS011;32805;53.556;9.944;2022-07-23T11:40:16;1.75;;;0.40;;
17141;SDS011;32805;53.556;9.944;2022-07-23T11:42:51;0.70;;;0.50;;
17141;SDS011;32805;53.556;9.944;2022-07-23T11:45:21;1.00;;;0.80;;
17141;SDS011;32805;53.556;9.944;2022-07-23T11:47:53;1.30;;;0.60;;
17141;SDS011;32805;53.556;9.944;2022-07-23T11:50:22;1.30;;;0.60;;
17141;SDS011;32805;53.556;9.944;2022-07-23T11:52:51;2.88;;;2.10;;
17141;SDS011;32805;53.556;9.944;2022-07-23T11:55:19;0.95;;;0.65;;
17141;SDS011;32805;53.556;9.944;2022-07-23T11:57:47;2.40;;;0.85;;
17141;SDS011;32805;53.556;9.944;2022-07-23T12:00:16;2.65;;;0.82;;
17141;SDS011;32805;53.556;9.944;2022-07-23T12:02:47;3.42;;;0.82;;
17141;SDS011;32805;53.556;9.944;2022-07-23T12:05:17;1.77;;;0.80;;
17141;SDS011;32805;53.556;9.944;2022-07-23T12:07:47;3.22;;;1.08;;
17141;SDS011;32805;53.556;9.944;2022-07-23T12:10:18;2.88;;;1.00;;
17141;SDS011;32805;53.556;9.944;2022-07-23T12:12:48;1.80;;;1.00;;
17141;SDS011;32805;53.556;9.944;2022-07-23T12:15:19;1.35;;;0.85;;
17141;SDS011;32805;53.556;9.944;2022-07-23T12:17:49;3.00;;;1.00;;
17141;SDS011;32805;53.556;9.944;2022-07-23T12:20:20;1.48;;;0.85;;
17141;SDS011;32805;53.556;9.944;2022-07-23T12:22:49;3.00;;;0.90;;
17141;SDS011;32805;53.556;9.944;2022-07-23T12:25:18;1.75;;;0.90;;
17141;SDS011;32805;53.556;9.944;2022-07-23T12:27:57;2.78;;;1.30;;
17141;SDS011;32805;53.556;9.944;2022-07-23T12:30:27;1.58;;;1.00;;
17141;SDS011;32805;53.556;9.944;2022-07-23T12:33:00;3.65;;;1.00;;
17141;SDS011;32805;53.556;9.944;2022-07-23T12:35:37;2.95;;;1.10;;
17141;SDS011;32805;53.556;9.944;2022-07-23T12:38:08;1.95;;;1.00;;
17141;SDS011;32805;53.556;9.944;2022-07-23T12:40:41;0.95;;;0.70;;
17141;SDS011;32805;53.556;9.944;2022-07-23T12:43:11;1.55;;;1.00;;
17141;SDS011;32805;53.556;9.944;2022-07-23T12:45:48;2.35;;;0.90;;
17141;SDS011;32805;53.556;9.944;2022-07-23T12:48:18;2.60;;;1.00;;
17141;SDS011;32805;53.556;9.944;2022-07-23T12:50:53;1.27;;;0.70;;
17141;SDS011;32805;53.556;9.944;2022-07-23T12:53:23;1.15;;;0.90;;
17141;SDS011;32805;53.556;9.944;2022-07-23T12:55:57;1.15;;;0.68;;
17141;SDS011;32805;53.556;9.944;2022-07-23T12:58:41;1.83;;;0.82;;
17141;SDS011;32805;53.556;9.944;2022-07-23T13:01:10;1.13;;;0.70;;
17141;SDS011;32805;53.556;9.944;2022-07-23T13:03:55;1.27;;;0.77;;
17141;SDS011;32805;53.556;9.944;2022-07-23T13:06:26;1.90;;;0.75;;
17141;SDS011;32805;53.556;9.944;2022-07-23T13:08:56;1.77;;;0.88;;
17141;SDS011;32805;53.556;9.944;2022-07-23T13:11:26;2.05;;;1.00;;
17141;SDS011;32805;53.556;9.944;2022-07-23T13:13:56;1.27;;;0.70;;
17141;SDS011;32805;53.556;9.944;2022-07-23T13:16:24;1.10;;;0.75;;
17141;SDS011;32805;53.556;9.944;2022-07-23T13:18:53;1.70;;;0.80;;
17141;SDS011;32805;53.556;9.944;2022-07-23T13:21:26;1.02;;;0.80;;
17141;SDS011;32805;53.556;9.944;2022-07-23T13:23:55;2.25;;;0.82;;
17141;SDS011;32805;53.556;9.944;2022-07-23T13:26:23;2.15;;;0.70;;
17141;SDS011;32805;53.556;9.944;2022-07-23T13:28:54;3.13;;;1.20;;
17141;SDS011;32805;53.556;9.944;2022-07-23T13:31:22;1.92;;;0.90;;
17141;SDS011;32805;53.556;9.944;2022-07-23T13:33:50;1.23;;;0.70;;
17141;SDS011;32805;53.556;9.944;2022-07-23T13:36:18;1.42;;;0.50;;
17141;SDS011;32805;53.556;9.944;2022-07-23T13:38:47;1.45;;;0.70;;
17141;SDS011;32805;53.556;9.944;2022-07-23T13:41:16;3.45;;;0.80;;
17141;SDS011;32805;53.556;9.944;2022-07-23T13:43:45;2.97;;;1.48;;
17141;SDS011;32805;53.556;9.944;2022-07-23T13:46:13;0.93;;;0.60;;
17141;SDS011;32805;53.556;9.944;2022-07-23T13:48:41;3.08;;;0.82;;
17141;SDS011;32805;53.556;9.944;2022-07-23T13:51:10;1.48;;;0.68;;
17141;SDS011;32805;53.556;9.944;2022-07-23T13:53:39;1.65;;;0.77;;
17141;SDS011;32805;53.556;9.944;2022-07-23T13:56:09;1.42;;;0.60;;
17141;SDS011;32805;53.556;9.944;2022-07-23T13:58:36;2.20;;;1.27;;
17141;SDS011;32805;53.556;9.944;2022-07-23T14:01:06;1.35;;;0.70;;
17141;SDS011;32805;53.556;9.944;2022-07-23T14:03:34;4.13;;;0.73;;
17141;SDS011;32805;53.556;9.944;2022-07-23T14:06:02;1.25;;;0.70;;
17141;SDS011;32805;53.556;9.944;2022-07-23T14:08:41;1.38;;;1.02;;
17141;SDS011;32805;53.556;9.944;2022-07-23T14:11:11;1.05;;;0.90;;
17141;SDS011;32805;53.556;9.944;2022-07-23T14:13:39;1.88;;;0.88;;
17141;SDS011;32805;53.556;9.944;2022-07-23T14:16:12;4.68;;;0.80;;
17141;SDS011;32805;53.556;9.944;2022-07-23T14:18:40;2.75;;;0.80;;
17141;SDS011;32805;53.556;9.944;2022-07-23T14:21:08;1.65;;;0.77;;
17141;SDS011;32805;53.556;9.944;2022-07-23T14:23:36;1.40;;;1.20;;
17141;SDS011;32805;53.556;9.944;2022-07-23T14:26:05;1.77;;;0.80;;
17141;SDS011;32805;53.556;9.944;2022-07-23T14:28:34;3.45;;;1.35;;
17141;SDS011;32805;53.556;9.944;2022-07-23T14:31:02;2.20;;;0.90;;
17141;SDS011;32805;53.556;9.944;2022-07-23T14:33:31;2.10;;;0.73;;
17141;SDS011;32805;53.556;9.944;2022-07-23T14:36:00;1.75;;;0.75;;
17141;SDS011;32805;53.556;9.944;2022-07-23T14:38:28;1.70;;;0.75;;
17141;SDS011;32805;53.556;9.944;2022-07-23T14:40:56;1.55;;;0.80;;
17141;SDS011;32805;53.556;9.944;2022-07-23T14:43:25;1.63;;;0.50;;
17141;SDS011;32805;53.556;9.944;2022-07-23T14:45:56;1.55;;;1.40;;
17141;SDS011;32805;53.556;9.944;2022-07-23T14:48:23;1.67;;;0.63;;
17141;SDS011;32805;53.556;9.944;2022-07-23T14:50:51;4.75;;;1.20;;
17141;SDS011;32805;53.556;9.944;2022-07-23T14:53:19;1.88;;;1.08;;
17141;SDS011;32805;53.556;9.944;2022-07-23T14:55:51;1.23;;;0.80;;
17141;SDS011;32805;53.556;9.944;2022-07-23T14:58:20;1.85;;;0.82;;
17141;SDS011;32805;53.556;9.944;2022-07-23T15:00:48;3.20;;;0.80;;
17141;SDS011;32805;53.556;9.944;2022-07-23T15:03:17;1.25;;;0.60;;
17141;SDS011;32805;53.556;9.944;2022-07-23T15:05:45;2.95;;;1.75;;
17141;SDS011;32805;53.556;9.944;2022-07-23T15:08:22;1.42;;;0.90;;
17141;SDS011;32805;53.556;9.944;2022-07-23T15:10:50;3.22;;;1.17;;
17141;SDS011;32805;53.556;9.944;2022-07-23T15:13:18;1.20;;;0.80;;
17141;SDS011;32805;53.556;9.944;2022-07-23T15:15:45;2.20;;;0.77;;
17141;SDS011;32805;53.556;9.944;2022-07-23T15:18:18;2.50;;;1.35;;